Map

Track Data

SID SEASON NUMBER BASIN SUBBASIN NAME ISO_TIME NATURE LAT LON WMO_WIND WMO_PRES WMO_AGENCY TRACK_TYPE DIST2LAND LANDFALL IFLAG USA_AGENCY USA_ATCF_ID USA_LAT USA_LON USA_RECORD USA_STATUS USA_WIND USA_PRES USA_SSHS USA_R34_NE USA_R34_SE USA_R34_SW USA_R34_NW USA_R50_NE USA_R50_SE USA_R50_SW USA_R50_NW USA_R64_NE USA_R64_SE USA_R64_SW USA_R64_NW USA_POCI USA_ROCI USA_RMW USA_EYE TOKYO_LAT TOKYO_LON TOKYO_GRADE TOKYO_WIND TOKYO_PRES TOKYO_R50_DIR TOKYO_R50_LONG TOKYO_R50_SHORT TOKYO_R30_DIR TOKYO_R30_LONG TOKYO_R30_SHORT TOKYO_LAND CMA_LAT CMA_LON CMA_CAT CMA_WIND CMA_PRES HKO_LAT HKO_LON HKO_CAT HKO_WIND HKO_PRES NEWDELHI_LAT NEWDELHI_LON NEWDELHI_GRADE NEWDELHI_WIND NEWDELHI_PRES NEWDELHI_CI NEWDELHI_DP NEWDELHI_POCI REUNION_LAT REUNION_LON REUNION_TYPE REUNION_WIND REUNION_PRES REUNION_TNUM REUNION_CI REUNION_RMW REUNION_R34_NE REUNION_R34_SE REUNION_R34_SW REUNION_R34_NW REUNION_R50_NE REUNION_R50_SE REUNION_R50_SW REUNION_R50_NW REUNION_R64_NE REUNION_R64_SE REUNION_R64_SW REUNION_R64_NW BOM_LAT BOM_LON BOM_TYPE BOM_WIND BOM_PRES BOM_TNUM BOM_CI BOM_RMW BOM_R34_NE BOM_R34_SE BOM_R34_SW BOM_R34_NW BOM_R50_NE BOM_R50_SE BOM_R50_SW BOM_R50_NW BOM_R64_NE BOM_R64_SE BOM_R64_SW BOM_R64_NW BOM_ROCI BOM_POCI BOM_EYE BOM_POS_METHOD BOM_PRES_METHOD NADI_LAT NADI_LON NADI_CAT NADI_WIND NADI_PRES WELLINGTON_LAT WELLINGTON_LON WELLINGTON_WIND WELLINGTON_PRES DS824_LAT DS824_LON DS824_STAGE DS824_WIND DS824_PRES TD9636_LAT TD9636_LON TD9636_STAGE TD9636_WIND TD9636_PRES TD9635_LAT TD9635_LON TD9635_WIND TD9635_PRES TD9635_ROCI NEUMANN_LAT NEUMANN_LON NEUMANN_CLASS NEUMANN_WIND NEUMANN_PRES MLC_LAT MLC_LON MLC_CLASS MLC_WIND MLC_PRES USA_GUST BOM_GUST BOM_GUST_PER REUNION_GUST REUNION_GUST_PER USA_SEAHGT USA_SEARAD_NE USA_SEARAD_SE USA_SEARAD_SW USA_SEARAD_NW STORM_SPEED STORM_DIR
2021012S12086 2021 3 SI MM ELOISE 2021-01-11 18:00:00 NR -11.6000 85.7000 main 1831 1831 O_____________ jtwc_sh SH122021 -11.6000 85.7000 DB 15 1010 -3 1007 180 60 4 245
2021012S12086 2021 3 SI MM ELOISE 2021-01-11 21:00:00 NR -11.6901 85.4975 main 1855 1855 P_____________ SH122021 -11.6901 85.4975 DB 17 1008 -3 1007 180 60 4 243
2021012S12086 2021 3 SI MM ELOISE 2021-01-12 00:00:00 NR -11.8000 85.3000 main 1879 1879 O_____________ jtwc_sh SH122021 -11.8000 85.3000 DB 20 1007 -3 1007 180 60 5 237
2021012S12086 2021 3 SI MM ELOISE 2021-01-12 03:00:00 NR -11.9424 85.0949 main 1904 1904 P_____________ SH122021 -11.9424 85.0949 DB 22 1005 -3 1007 180 60 6 238
2021012S12086 2021 3 SI MM ELOISE 2021-01-12 06:00:00 TS -12.1000 84.8000 main 1943 1943 O_____________ jtwc_sh SH122021 -12.1000 84.8000 TD 25 1004 -1 1007 180 60 8 248
2021012S12086 2021 3 SI MM ELOISE 2021-01-12 09:00:00 TS -12.2501 84.3300 main 2000 2000 P_____________ SH122021 -12.2501 84.3300 TD 25 1004 -1 1007 180 60 10 253
2021012S12086 2021 3 SI MM ELOISE 2021-01-12 12:00:00 TS -12.4000 83.8000 main 2051 2051 O_____________ jtwc_sh SH122021 -12.4000 83.8000 TD 25 1005 -1 1007 180 60 10 252
2021012S12086 2021 3 SI MM ELOISE 2021-01-12 15:00:00 TS -12.5498 83.3574 main 2084 2084 P_____________ SH122021 -12.5498 83.3574 TD 25 1005 -1 1007 180 60 9 251
2021012S12086 2021 3 SI MM ELOISE 2021-01-12 18:00:00 TS -12.7000 82.9000 main 2099 2098 O_____________ jtwc_sh SH122021 -12.7000 82.9000 TD 25 1005 -1 1007 180 60 10 252
2021012S12086 2021 3 SI MM ELOISE 2021-01-12 21:00:00 TS -12.8575 82.3650 main 2115 2112 P_____________ SH122021 -12.8575 82.3650 TD 22 1004 -1 1006 165 60 11 254
2021012S12086 2021 3 SI MM ELOISE 2021-01-13 00:00:00 NR -13.0000 81.8000 main 2121 2120 O_____________ jtwc_sh SH122021 -13.0000 81.8000 DB 20 1004 -3 1005 150 60 11 257
2021012S12086 2021 3 SI MM ELOISE 2021-01-13 03:00:00 NR -13.1150 81.2350 main 2129 2129 P_____________ SH122021 -13.1150 81.2350 DB 20 1003 -3 1005 150 60 11 259
2021012S12086 2021 3 SI MM ELOISE 2021-01-13 06:00:00 NR -13.2000 80.7000 main 2139 2139 O_____________ jtwc_sh SH122021 -13.2000 80.7000 DB 20 1003 -3 1005 150 60 10 261
2021012S12086 2021 3 SI MM ELOISE 2021-01-13 09:00:00 NR -13.2647 80.2575 main 2151 2151 P_____________ SH122021 -13.2647 80.2575 DB 20 1005 -3 1005 150 60 9 263
2021012S12086 2021 3 SI MM ELOISE 2021-01-13 12:00:00 NR -13.3000 79.8000 main 2152 2152 O_____________ jtwc_sh SH122021 -13.3000 79.8000 DB 20 1007 -3 1005 150 60 10 267
2021012S12086 2021 3 SI MM ELOISE 2021-01-13 15:00:00 NR -13.3149 79.2375 main 2156 2156 P_____________ SH122021 -13.3149 79.2375 DB 20 1007 -3 1005 150 60 12 270
2021012S12086 2021 3 SI MM ELOISE 2021-01-13 18:00:00 NR -13.3000 78.6000 main 2162 2162 O_____________ jtwc_sh SH122021 -13.3000 78.6000 DB 20 1007 -3 1005 150 60 13 271
2021012S12086 2021 3 SI MM ELOISE 2021-01-13 21:00:00 NR -13.2948 77.9303 main 2171 2171 P_____________ SH122021 -13.2948 77.9303 DB 17 1006 -3 1005 245 60 16 270
2021012S12086 2021 3 SI MM ELOISE 2021-01-14 00:00:00 TS -13.3000 76.9400 20 1004 reunion main 2177 2112 O____O________ jtwc_sh SH122021 -13.2000 77.2000 DB 15 1006 -3 1006 340 60 -13.7000 75.9000 1 20 1004 9.90000 1 17 275
2021012S12086 2021 3 SI MM ELOISE 2021-01-14 03:00:00 TS -13.1611 76.1885 main 2112 2053 P____P________ SH122021 -12.9593 76.4677 DB 15 1006 -3 1006 260 47 -13.5648 75.6300 1 20 1004 15 284
2021012S12086 2021 3 SI MM ELOISE 2021-01-14 06:00:00 TS -12.9429 75.4286 20 1004 reunion main 2048 1971 O____O________ jtwc_sh SH122021 -12.6000 75.6000 DB 15 1007 -3 1007 180 35 -13.4000 75.2000 1 20 1004 9.90000 1 18 287
2021012S12086 2021 3 SI MM ELOISE 2021-01-14 09:00:00 TS -12.6544 74.4608 main 1971 1898 P____P________ SH122021 -12.1285 74.4116 DB 17 1007 -3 1007 180 35 -13.1802 74.5100 1 20 1004 20 289
2021012S12086 2021 3 SI MM ELOISE 2021-01-14 12:00:00 TS -12.3000 73.5000 20 1004 reunion main 1898 1843 O____O________ jtwc_sh SH122021 -11.7000 73.3000 DB 20 1007 -3 1007 180 35 -12.9000 73.7000 1 20 1004 9.90000 1 18 291
2021012S12086 2021 3 SI MM ELOISE 2021-01-14 15:00:00 TS -12.0235 72.7715 main 1849 1805 P____P________ SH122021 -11.4968 72.6382 DB 20 1006 -3 1007 180 35 -12.5501 72.9048 1 21 1003 14 291
2021012S12086 2021 3 SI MM ELOISE 2021-01-14 18:00:00 TS -11.8000 72.2000 22 1003 reunion main 1805 1781 O____O________ jtwc_sh SH122021 -11.4000 72.2000 DB 20 1005 -3 1007 180 35 -12.2000 72.2000 2 22 1003 1.00000 1.00000 1 11 294
2021012S12086 2021 3 SI MM ELOISE 2021-01-14 21:00:00 TS -11.5759 71.7600 main 1781 1752 P____P________ SH122021 -11.2471 71.8223 DB 20 1005 -3 1006 195 35 -11.9047 71.6977 2 23 1002 9 293
2021012S12086 2021 3 SI MM ELOISE 2021-01-15 00:00:00 TS -11.4500 71.3500 25 1002 reunion main 1758 1707 O____O________ jtwc_sh SH122021 -11.2000 71.4000 DB 20 1006 -3 1006 210 35 -11.7000 71.3000 2 25 1002 1.50000 1.50000 1 9 276
2021012S12086 2021 3 SI MM ELOISE 2021-01-15 03:00:00 TS -11.4837 70.8377 main 1699 1648 P____P________ SH122021 -11.3702 70.7378 DB 17 1006 -3 1006 215 42 -11.5972 70.9375 2 25 1002 11 262
2021012S12086 2021 3 SI MM ELOISE 2021-01-15 06:00:00 TS -11.6000 70.2500 25 1002 reunion main 1648 1581 O____O________ jtwc_sh SH122021 -11.6000 70.0000 DB 15 1006 -3 1006 220 50 -11.6000 70.5000 2 25 1002 1.50000 1.50000 1 12 260
2021012S12086 2021 3 SI MM ELOISE 2021-01-15 09:00:00 TS -11.6925 69.5862 main 1581 1514 P____P________ SH122021 -11.7073 69.3348 DB 17 1005 -3 1005 210 47 -11.6777 69.8376 2 26 1001 13 261
2021012S12086 2021 3 SI MM ELOISE 2021-01-15 12:00:00 TS -11.8000 68.9000 27 1001 reunion main 1514 1457 O____O________ jtwc_sh SH122021 -11.8000 68.7000 DB 20 1004 -3 1004 200 45 -11.8000 69.1000 2 27 1001 1.50000 1.50000 1 13 260
2021012S12086 2021 3 SI MM ELOISE 2021-01-15 15:00:00 TS -11.9324 68.2526 main 1457 1400 P____P________ SH122021 -11.9649 68.0776 DB 22 1004 -3 1005 200 45 -11.8999 68.4275 2 28 1000 13 258
2021012S12086 2021 3 SI MM ELOISE 2021-01-15 18:00:00 TS -12.0500 67.6500 30 1000 reunion main 1400 1344 O____O________ jtwc_sh SH122021 -12.1000 67.5000 TD 25 1005 -1 1007 200 45 -12.0000 67.8000 2 30 1000 2.00000 2.00000 1 12 262
2021012S12086 2021 3 SI MM ELOISE 2021-01-15 21:00:00 TS -12.1000 67.0761 main 1344 1305 P____P________ SH122021 -12.1000 66.9548 TD 27 1003 -1 1006 200 42 -12.1000 67.1975 2 30 1000 10 264
2021012S12086 2021 3 SI MM ELOISE 2021-01-16 00:00:00 TS -12.1500 66.6000 30 1000 reunion main 1305 1266 O____O________ jtwc_sh SH122021 -12.1000 66.5000 TD 30 1002 -1 1005 200 40 -12.2000 66.7000 2 30 1000 2.00000 2.00000 1 8 257
2021012S12086 2021 3 SI MM ELOISE 2021-01-16 03:00:00 TS -12.2748 66.2813 main 1266 1235 P____P________ SH122021 -12.2423 66.1776 TD 32 1000 -1 1005 195 40 -12.3072 66.3849 2 31 999 6 247
2021012S12086 2021 3 SI MM ELOISE 2021-01-16 06:00:00 TS -12.4000 66.0000 33 998 reunion main 1235 1197 O____O________ jtwc_sh SH122021 -12.4000 65.9000 TS 35 999 0 60 150 105 100 1005 190 40 -12.4000 66.1000 2 33 998 2.00000 2.00000 1 7 253
2021012S12086 2021 3 SI MM ELOISE 2021-01-16 09:00:00 TS -12.4688 65.6150 main 1197 1167 P____P________ SH122021 -12.4725 65.5650 TS 35 999 0 57 145 110 95 1005 190 40 -12.4651 65.6650 2 34 997 8 263
2021012S12086 2021 3 SI MM ELOISE 2021-01-16 12:00:00 TS -12.5000 65.2000 35 997 reunion main 1167 1138 O____O________ jtwc_sh SH122021 -12.5000 65.2000 TS 35 999 0 55 140 115 90 1005 190 40 -12.5000 65.2000 3 35 997 2.50000 2.50000 1 8 268
2021012S12086 2021 3 SI MM ELOISE 2021-01-16 15:00:00 TS -12.4923 64.8186 main 1138 1110 P____P________ SH122021 -12.4849 64.8223 TS 32 1001 -1 1006 200 40 -12.4998 64.8149 3 35 997 8 270
2021012S12086 2021 3 SI MM ELOISE 2021-01-16 18:00:00 TS -12.5000 64.4000 35 997 reunion main 1110 1068 O____O________ jtwc_sh SH122021 -12.5000 64.4000 TD 30 1003 -1 1007 210 40 -12.5000 64.4000 3 35 997 2.50000 2.50000 1 9 263
2021012S12086 2021 3 SI MM ELOISE 2021-01-16 21:00:00 TS -12.5999 63.9051 main 1068 1027 P____P________ SH122021 -12.6648 63.9378 TD 32 1000 -1 1005 205 40 -12.5350 63.8725 3 35 997 10 259
2021012S12086 2021 3 SI MM ELOISE 2021-01-17 00:00:00 TS -12.7000 63.3500 35 997 reunion main 1027 990 O____O________ jtwc_sh SH122021 -12.8000 63.4000 TS 35 998 0 60 120 95 75 1004 200 40 -12.6000 63.3000 3 35 997 2.50000 2.50000 1 11 265
2021012S12086 2021 3 SI MM ELOISE 2021-01-17 03:00:00 TS -12.6926 62.7422 main 984 957 P____P________ SH122021 -12.7002 62.7420 TS 35 999 0 62 87 75 70 1004 200 40 -12.6849 62.7425 3 36 996 12 270
2021012S12086 2021 3 SI MM ELOISE 2021-01-17 06:00:00 TS -12.7000 62.1500 37 995 reunion main 957 921 O____O________ jtwc_sh SH122021 -12.6000 62.1000 TS 35 1000 0 65 55 55 65 1004 200 40 -12.8000 62.2000 3 37 995 2.50000 2.50000 59 94 94 80 1 10 262
2021012S12086 2021 3 SI MM ELOISE 2021-01-17 09:00:00 TS -12.8308 61.6975 main 921 877 P____P________ SH122021 -12.7045 61.6650 TS 37 999 0 65 55 55 65 1004 200 40 -12.9571 61.7300 3 37 995 64 96 96 89 10 252
2021012S12086 2021 3 SI MM ELOISE 2021-01-17 12:00:00 TS -13.0000 61.2000 37 995 reunion main 877 838 O____O________ jtwc_sh SH122021 -12.9000 61.2000 TS 40 998 0 65 55 55 65 1004 200 40 -13.1000 61.2000 3 37 995 2.50000 2.50000 70 99 99 99 1 12 257
2021012S12086 2021 3 SI MM ELOISE 2021-01-17 15:00:00 TS -13.1101 60.4873 main 838 801 P____P________ SH122021 -13.0852 60.4875 TS 42 998 0 67 57 57 65 1005 200 35 -13.1351 60.4871 3 36 995 70 102 102 107 15 260
2021012S12086 2021 3 SI MM ELOISE 2021-01-17 18:00:00 TS -13.2500 59.7000 35 996 reunion main 801 751 O____O________ jtwc_sh SH122021 -13.3000 59.7000 TS 45 999 0 70 60 60 65 1007 200 30 -13.2000 59.7000 3 35 996 2.00000 2.50000 70 105 105 116 1 15 254
2021012S12086 2021 3 SI MM ELOISE 2021-01-17 21:00:00 TS -13.5107 59.0052 main 751 719 P____P________ SH122021 -13.5720 59.0151 TS 47 996 0 72 62 60 67 1006 212 30 -13.4493 58.9953 3 35 996 75 111 102 122 15 250
2021012S12086 2021 3 SI MM ELOISE 2021-01-18 00:00:00 TS -13.7500 58.2500 35 996 reunion main 719 705 O____O________ jtwc_sh SH122021 -13.8000 58.3000 TS 50 994 0 75 65 60 70 33 26 23 29 1005 225 30 -13.7000 58.2000 3 35 996 2.00000 2.50000 80 118 99 129 1 17 259
2021012S12086 2021 3 SI MM ELOISE 2021-01-18 03:00:00 TS -13.8414 57.3223 main 705 651 P____P________ SH122021 -13.8948 57.4873 TS 50 994 0 75 65 60 70 33 26 23 29 1005 225 30 -13.7880 57.1573 3 37 994 84 126 99 134 18 267
2021012S12086 2021 3 SI MM ELOISE 2021-01-18 06:00:00 TS -13.8500 56.3500 40 993 reunion main 654 560 O____O________ jtwc_sh SH122021 -13.9000 56.6000 TS 50 995 0 75 65 60 70 33 26 23 29 1006 225 30 -13.8000 56.1000 3 40 993 2.50000 2.50000 89 134 99 140 1 18 271
2021012S12086 2021 3 SI MM ELOISE 2021-01-18 09:00:00 TS -13.8173 55.4447 main 550 468 P____P________ SH122021 -13.8350 55.6495 TS 50 995 0 75 65 60 70 33 26 23 29 1006 225 30 -13.7995 55.2399 3 41 992 89 111 104 140 17 272
2021012S12086 2021 3 SI MM ELOISE 2021-01-18 12:00:00 TS -13.8000 54.6000 43 991 reunion main 468 383 O____O________ jtwc_sh SH122021 -13.8000 54.7000 TS 50 996 0 75 65 60 70 33 26 23 29 1006 225 30 -13.8000 54.5000 3 43 991 3.00000 3.00000 89 89 110 140 1 16 268
2021012S12086 2021 3 SI MM ELOISE 2021-01-18 15:00:00 TS -13.8775 53.7790 main 383 310 P____P________ SH122021 -13.9277 53.7605 TS 52 994 0 87 70 85 75 41 29 39 32 1006 227 32 -13.8273 53.7975 3 45 990 89 70 110 140 15 262
2021012S12086 2021 3 SI MM ELOISE 2021-01-18 18:00:00 TS -14.0000 53.1000 47 989 reunion main 310 257 O____O________ jtwc_sh SH122021 -14.1000 53.0000 TS 55 992 0 100 75 110 80 49 33 55 36 1006 230 35 -13.9000 53.2000 3 47 989 3.50000 3.50000 89 51 110 140 1 11 258
2021012S12086 2021 3 SI MM ELOISE 2021-01-18 21:00:00 TS -14.1097 52.6287 main 257 223 P____P________ SH122021 -14.1995 52.5673 TS 57 990 0 97 80 110 82 47 36 55 37 1006 230 37 -14.0199 52.6900 3 48 988 89 51 90 129 8 252
2021012S12086 2021 3 SI MM ELOISE 2021-01-19 00:00:00 TS -14.2500 52.3000 50 987 reunion main 223 184 O____O________ jtwc_sh SH122021 -14.3000 52.3000 TS 60 989 0 95 85 110 85 46 39 55 39 1006 230 40 -14.2000 52.3000 3 50 987 3.50000 3.50000 89 51 70 118 29 29 0 29 1 7 241
2021012S12086 2021 3 SI MM ELOISE 2021-01-19 03:00:00 TS -14.4310 52.0323 main 184 155 P____P________ SH122021 -14.4199 52.0073 TS 57 991 0 90 75 97 82 42 33 47 37 1007 217 35 -14.4422 52.0573 3 50 987 74 45 60 108 29 29 0 29 7 233
2021012S12086 2021 3 SI MM ELOISE 2021-01-19 06:00:00 TS -14.6500 51.7500 50 987 reunion main 155 92 O____O________ jtwc_sh SH122021 -14.6000 51.7000 TS 55 993 0 85 65 85 80 39 27 39 36 1008 205 30 -14.7000 51.8000 3 50 987 3.00000 3.50000 22 59 40 51 99 29 29 0 29 65 1 9 235
2021012S12086 2021 3 SI MM ELOISE 2021-01-19 09:00:00 TS -14.9264 51.3078 main 92 44 P____P________ SH122021 -14.9151 51.2928 TS 50 994 0 85 72 80 75 19 13 19 18 1007 197 30 -14.9377 51.3227 3 50 987 18 59 40 51 69 26 26 9 24 10 240
2021012S12086 2021 3 SI MM ELOISE 2021-01-19 12:00:00 TS -15.1500 50.8500 50 987 reunion main 44 0 O____O________ jtwc_sh SH122021 -15.2000 50.9000 TS 45 996 0 85 80 75 70 1006 190 30 -15.1000 50.8000 3 50 987 3.00000 3.50000 15 59 40 51 40 24 24 19 19 1 8 251
2021012S12086 2021 3 SI MM ELOISE 2021-01-19 15:00:00 TS -15.1785 50.5321 main 0 0 P____P________ SH122021 -15.2722 50.6722 TS 47 994 0 90 80 82 75 1006 185 30 -15.0848 50.3920 3 52 986 13 55 40 48 34 24 21 19 19 6 265
2021012S12086 2021 3 SI MM ELOISE 2021-01-19 18:00:00 TS -15.2000 50.2000 55 985 reunion main 0 0 O____O________ jtwc_sh SH122021 -15.3000 50.4000 TS 50 993 0 95 80 90 80 45 36 42 36 1006 180 30 -15.1000 50.0000 3 55 985 3.50000 3.50000 11 51 40 45 29 24 19 19 19 1 8 252
2021012S12086 2021 3 SI MM ELOISE 2021-01-19 21:00:00 TS -15.4211 49.7565 main 0 0 P____P________ SH122021 -15.4498 49.9326 TS 45 995 0 90 65 70 77 1006 167 27 -15.3923 49.5804 3 47 991 40 34 22 14 11 245
2021012S12086 2021 3 SI MM ELOISE 2021-01-20 00:00:00 TS -15.6500 49.2000 40 998 reunion main 0 0 O____O________ jtwc_sh SH122021 -15.6000 49.3000 TS 40 997 0 85 50 50 75 1006 155 25 -15.7000 49.1000 8 40 998 9.90000 29 29 0 0 1 12 254
2021012S12086 2021 3 SI MM ELOISE 2021-01-20 03:00:00 TS -15.7600 48.5376 main 0 0 P____P________ SH122021 -15.6952 48.5302 TS 35 1001 0 42 25 25 37 1006 152 25 -15.8248 48.5451 8 35 997 14 266
2021012S12086 2021 3 SI MM ELOISE 2021-01-20 06:00:00 TS -15.7500 47.8000 30 reunion main 0 0 O____I________ jtwc_sh SH122021 -15.7000 47.7000 TD 30 1005 -1 1007 150 25 -15.8000 47.9000 8 30 997 9.90000 1 15 278
2021012S12086 2021 3 SI MM ELOISE 2021-01-20 09:00:00 TS -15.5600 47.0417 main 0 0 P____P________ SH122021 -15.5349 46.9193 TD 32 1002 -1 1006 150 35 -15.5850 47.1642 8 31 997 15 284
2021012S12086 2021 3 SI MM ELOISE 2021-01-20 12:00:00 TS -15.4000 46.3000 32 997 reunion main 24 24 O____O________ jtwc_sh SH122021 -15.4000 46.2000 TS 35 1000 0 100 80 80 115 1006 150 45 -15.4000 46.4000 2 32 997 2.50000 2.50000 1 14 273
2021012S12086 2021 3 SI MM ELOISE 2021-01-20 15:00:00 TS -15.4860 45.6203 main 44 33 P____P________ SH122021 -15.4898 45.5628 TS 37 999 0 105 85 112 1006 140 72 -15.4823 45.6778 2 33 996 13 257
2021012S12086 2021 3 SI MM ELOISE 2021-01-20 18:00:00 TS -15.7000 45.0000 35 996 reunion main 35 35 O____O________ jtwc_sh SH122021 -15.7000 45.0000 TS 40 999 0 110 90 110 1006 130 100 -15.7000 45.0000 3 35 996 2.50000 2.50000 80 0 59 0 1 12 249
2021012S12086 2021 3 SI MM ELOISE 2021-01-20 21:00:00 TS -15.9348 44.4275 main 44 30 P____P________ SH122021 -15.9347 44.4924 TS 37 1000 0 105 92 115 1006 165 85 -15.9349 44.3625 3 35 996 84 20 59 0 12 245
2021012S12086 2021 3 SI MM ELOISE 2021-01-21 00:00:00 TS -16.2000 43.9000 35 996 reunion main 54 54 O____O________ jtwc_sh SH122021 -16.2000 44.0000 TS 35 1001 0 100 45 95 120 1006 200 70 -16.2000 43.8000 3 35 996 2.00000 2.50000 89 40 59 0 1 11 243
2021012S12086 2021 3 SI MM ELOISE 2021-01-21 03:00:00 TS -16.4423 43.3923 main 106 105 P____P________ SH122021 -16.4350 43.4498 TS 37 1001 0 100 45 95 120 1007 205 65 -16.4497 43.3348 3 36 995 89 64 59 0 11 242
2021012S12086 2021 3 SI MM ELOISE 2021-01-21 06:00:00 TS -16.7000 42.9000 37 995 reunion main 138 138 O____O________ jtwc_sh SH122021 -16.7000 42.9000 TS 40 1002 0 100 45 95 120 1009 210 60 -16.7000 42.9000 3 37 995 2.00000 2.50000 89 89 59 0 1 11 239
2021012S12086 2021 3 SI MM ELOISE 2021-01-21 09:00:00 TS -16.9997 42.4261 main 168 168 P____P________ SH122021 -17.0571 42.4150 TS 42 1000 0 100 67 92 110 1009 210 60 -16.9422 42.4372 3 38 994 99 94 64 29 11 238
2021012S12086 2021 3 SI MM ELOISE 2021-01-21 12:00:00 TS -17.3000 41.9000 40 993 reunion main 213 194 O____O________ jtwc_sh SH122021 -17.4000 41.9000 TS 45 999 0 100 90 90 100 1009 210 60 -17.2000 41.9000 3 40 993 2.50000 2.50000 110 99 70 59 1 13 244
2021012S12086 2021 3 SI MM ELOISE 2021-01-21 15:00:00 TS -17.5614 41.2399 main 193 164 P____P________ SH122021 -17.6225 41.2722 TS 50 996 0 105 92 90 102 27 23 21 26 1009 210 60 -17.5003 41.2077 3 42 991 114 99 79 74 14 249
2021012S12086 2021 3 SI MM ELOISE 2021-01-21 18:00:00 TS -17.8000 40.5500 45 990 reunion main 168 147 O____O________ jtwc_sh SH122021 -17.8000 40.6000 TS 55 994 0 110 95 90 105 55 46 42 52 1009 210 60 -17.8000 40.5000 3 45 990 3.00000 3.00000 49 118 99 89 89 1 13 249
2021012S12086 2021 3 SI MM ELOISE 2021-01-21 21:00:00 TS -18.0284 39.9460 main 140 137 P____P________ SH122021 -17.9848 39.9497 TS 60 990 0 110 97 90 107 55 47 42 53 1008 205 45 -18.0720 39.9423 3 47 988 43 118 99 89 89 12 248
2021012S12086 2021 3 SI MM ELOISE 2021-01-22 00:00:00 TS -18.2500 39.3500 50 987 reunion main 137 140 O____O________ jtwc_sh SH122021 -18.2000 39.3000 TY 65 987 1 110 100 90 110 55 49 43 55 29 25 22 29 1008 200 30 -18.3000 39.4000 3 50 987 3.00000 3.00000 37 118 99 89 89 40 40 40 0 1 13 249
2021012S12086 2021 3 SI MM ELOISE 2021-01-22 03:00:00 TS -18.4825 38.6888 main 148 134 P____P________ SH122021 -18.5075 38.6278 TY 70 984 1 110 100 90 110 55 49 43 55 29 25 22 29 1008 200 25 -18.4576 38.7497 3 52 985 31 118 104 89 86 42 42 40 17 13 250
2021012S12086 2021 3 SI MM ELOISE 2021-01-22 06:00:00 TS -18.7000 38.0500 55 984 reunion main 134 99 O____O________ jtwc_sh SH122021 -18.8000 38.0000 TY 75 981 1 110 100 90 110 56 50 43 56 29 26 22 29 1008 200 20 -18.6000 38.1000 3 55 984 3.50000 3.50000 26 118 110 89 83 45 45 40 35 1 12 251
2021012S12086 2021 3 SI MM ELOISE 2021-01-22 09:00:00 TS -18.8710 37.4984 main 100 69 P____P________ SH122021 -18.9572 37.4770 TY 77 979 1 110 100 90 112 56 50 43 57 29 26 22 30 1008 200 20 -18.7848 37.5199 3 60 980 25 123 114 89 68 48 48 40 35 11 251
2021012S12086 2021 3 SI MM ELOISE 2021-01-22 12:00:00 TS -19.0500 37.0000 65 977 reunion main 69 46 O____O________ jtwc_sh SH122021 -19.1000 37.0000 TY 80 977 1 110 100 90 115 56 50 44 59 29 26 22 31 1008 200 20 40 -19.0000 37.0000 4 65 977 4.50000 4.50000 24 129 118 89 53 51 51 40 35 1 10 246
2021012S12086 2021 3 SI MM ELOISE 2021-01-22 15:00:00 TS -19.2848 36.5248 main 49 45 P____P________ SH122021 -19.3349 36.5000 TY 80 976 1 110 107 82 95 56 54 39 46 29 28 19 24 1007 195 17 -19.2347 36.5497 4 67 975 23 134 123 89 52 52 52 40 35 10 241
2021012S12086 2021 3 SI MM ELOISE 2021-01-22 18:00:00 TS -19.5500 36.0500 70 973 reunion main 59 45 O____O________ jtwc_sh SH122021 -19.6000 36.0000 TY 80 975 1 110 115 75 75 56 59 34 34 29 31 17 17 1006 190 15 30 -19.5000 36.1000 4 70 973 4.50000 4.50000 22 140 129 89 51 53 53 40 35 1 11 240
2021012S12086 2021 3 SI MM ELOISE 2021-01-22 21:00:00 TS -19.8287 35.5325 main 38 20 P____P________ SH122021 -19.8574 35.4999 TY 85 971 2 110 115 75 75 56 59 34 34 29 31 17 17 1006 190 15 -19.8000 35.5650 4 75 969 20 134 123 71 45 53 53 42 35 11 241
2021012S12086 2021 3 SI MM ELOISE 2021-01-23 00:00:00 TS -20.1000 35.0000 80 965 reunion main 20 0 O____O________ jtwc_sh SH122021 -20.1000 35.0000 TY 90 968 2 110 115 75 75 57 60 35 35 30 32 18 18 1006 190 15 20 -20.1000 35.0000 4 80 965 5.00000 5.00000 18 129 118 53 40 53 53 45 35 1 11 243
2021012S12086 2021 3 SI MM ELOISE 2021-01-23 03:00:00 TS -20.3362 34.4561 main 0 0 P____P________ SH122021 -20.3075 34.4849 TY 82 974 1 107 115 90 75 55 59 44 34 28 31 22 17 1007 192 15 -20.3650 34.4274 4 75 969 16 114 99 49 40 52 46 37 32 11 245
2021012S12086 2021 3 SI MM ELOISE 2021-01-23 06:00:00 TS -20.5500 33.9500 70 973 reunion main 0 0 O____O________ jtwc_sh SH122021 -20.5000 34.0000 TY 75 980 1 105 115 105 75 53 59 53 34 27 31 27 17 1008 195 15 -20.6000 33.9000 4 70 973 9.90000 15 99 80 45 40 51 40 29 29 1 10 245
2021012S12086 2021 3 SI MM ELOISE 2021-01-23 09:00:00 TS -20.7385 33.5347 main 0 0 P____P________ SH122021 -20.6773 33.5847 TY 65 985 1 105 115 80 67 52 58 36 28 13 15 13 8 1006 192 15 -20.7997 33.4846 4 57 980 8 242
2021012S12086 2021 3 SI MM ELOISE 2021-01-23 12:00:00 TS -20.9500 33.1500 45 988 reunion main 0 0 O____O________ jtwc_sh SH122021 -20.9000 33.2000 TS 55 990 0 105 115 55 60 52 58 20 23 1005 190 15 -21.0000 33.1000 8 45 988 9.90000 1 8 240
2021012S12086 2021 3 SI MM ELOISE 2021-01-23 15:00:00 TS -21.1597 32.7538 main 0 0 P____P________ SH122021 -21.0846 32.8427 TS 50 991 0 100 107 50 65 26 29 10 11 1004 177 15 -21.2349 32.6648 8 37 10 234
2021012S12086 2021 3 SI MM ELOISE 2021-01-23 18:00:00 TS -21.5429 32.2857 30 reunion main 0 0 O____O________ jtwc_sh SH122021 -21.6000 32.4000 TS 45 993 0 95 100 45 70 1003 165 15 -21.5000 32.2000 8 30 9.90000 1 13 226
2021012S12086 2021 3 SI MM ELOISE 2021-01-23 21:00:00 TS -22.1012 31.7217 main 0 0 P____P________ SH122021 -22.7186 31.7652 TS 37 996 0 47 50 22 35 1003 152 17 -21.7925 31.7000 8 27 14 227
2021012S12086 2021 3 SI MM ELOISE 2021-01-24 00:00:00 TS -22.5200 31.1600 25 reunion main 0 0 O____O________ jtwc_sh SH122021 -24.2000 31.0000 TD 30 999 -1 1003 140 20 -22.1000 31.2000 8 25 9.90000 1 9 252
2021012S12086 2021 3 SI MM ELOISE 2021-01-24 03:00:00 NR -22.3997 30.7497 main 0 0 _____P________ SH122021 TD -5 -22.3997 30.7497 8 22 8 257
2021012S12086 2021 3 SI MM ELOISE 2021-01-24 06:00:00 NR -22.7000 30.3000 20 reunion main 0 0 _____O________ -5 -22.7000 30.3000 8 20 9.90000 1 11 235
2021012S12086 2021 3 SI MM ELOISE 2021-01-24 09:00:00 NR -23.0150 29.8000 main 0 0 _____P________ -5 -23.0150 29.8000 8 20 11 237
2021012S12086 2021 3 SI MM ELOISE 2021-01-24 12:00:00 NR -23.3000 29.3000 20 reunion main 0 0 _____O________ -5 -23.3000 29.3000 8 20 9.90000 1 10 239
2021012S12086 2021 3 SI MM ELOISE 2021-01-24 15:00:00 NR -23.5447 28.8500 main 0 0 _____P________ -5 -23.5447 28.8500 8 20 9 244
2021012S12086 2021 3 SI MM ELOISE 2021-01-24 18:00:00 NR -23.7000 28.4000 20 reunion main 0 0 _____O________ -5 -23.7000 28.4000 8 20 9.90000 1 9 259
2021012S12086 2021 3 SI MM ELOISE 2021-01-24 21:00:00 NR -23.7147 27.9295 main 0 0 _____P________ -5 -23.7147 27.9295 8 20 9 270
2021012S12086 2021 3 SI MM ELOISE 2021-01-25 00:00:00 NR -23.7000 27.4000 20 reunion main 0 0 _____O________ -5 -23.7000 27.4000 8 20 9.90000 1 11 267
2021012S12086 2021 3 SI MM ELOISE 2021-01-25 03:00:00 NR -23.7626 26.7648 main 0 0 _____P________ -5 -23.7626 26.7648 8 17 12 260
2021012S12086 2021 3 SI MM ELOISE 2021-01-25 06:00:00 NR -23.9000 26.1000 15 reunion main 0 0 _____O________ -5 -23.9000 26.1000 8 15 9.90000 1 12 252
2021012S12086 2021 3 SI MM ELOISE 2021-01-25 09:00:00 NR -24.1348 25.4777 main 0 0 _____P________ -5 -24.1348 25.4777 8 12 245
2021012S12086 2021 3 SI MM ELOISE 2021-01-25 12:00:00 NR -24.4000 24.9000 reunion main 0 0 _____O________ -5 -24.4000 24.9000 8 9.90000 1 11 245
2021012S12086 2021 3 SI MM ELOISE 2021-01-25 15:00:00 NR -24.6149 24.3624 main 0 0 _____P________ -5 -24.6149 24.3624 8 10 246
2021012S12086 2021 3 SI MM ELOISE 2021-01-25 18:00:00 NR -24.8000 23.9000 reunion main 0 0 _____O________ -5 -24.8000 23.9000 8 9.90000 1 9 246
2021012S12086 2021 3 SI MM ELOISE 2021-01-25 21:00:00 NR -24.9574 23.5048 main 0 0 _____P________ -5 -24.9574 23.5048 8 7 245
2021012S12086 2021 3 SI MM ELOISE 2021-01-26 00:00:00 NR -25.1000 23.2000 reunion main 0 0 _____O________ -5 -25.1000 23.2000 8 9.90000 1 6 240
2021012S12086 2021 3 SI MM ELOISE 2021-01-26 03:00:00 NR -25.2349 22.9698 main 0 0 _____P________ -5 -25.2349 22.9698 8 5 230
2021012S12086 2021 3 SI MM ELOISE 2021-01-26 06:00:00 NR -25.4000 22.8000 reunion main 0 0 _____O________ -5 -25.4000 22.8000 8 9.90000 1 5 218
2021012S12086 2021 3 SI MM ELOISE 2021-01-26 09:00:00 NR -25.6275 22.6275 main 0 0 _____P________ -5 -25.6275 22.6275 8 6 209
2021012S12086 2021 3 SI MM ELOISE 2021-01-26 12:00:00 TS -25.9000 22.5000 reunion main 0 0 _____O________ -5 -25.9000 22.5000 6 9.90000 1 6 197
2021012S12086 2021 3 SI MM ELOISE 2021-01-26 15:00:00 TS -26.2375 22.4275 main 0 0 _____P________ -5 -26.2375 22.4275 6 6 188
2021012S12086 2021 3 SI MM ELOISE 2021-01-26 18:00:00 TS -26.5000 22.4000 reunion main 0 0 _____O________ -5 -26.5000 22.4000 6 9.90000 1 3 189
2021012S12086 2021 3 SI MM ELOISE 2021-01-26 21:00:00 TS -26.5374 22.3625 main 0 0 _____P________ -5 -26.5374 22.3625 6 0 0
2021012S12086 2021 3 SI MM ELOISE 2021-01-27 00:00:00 TS -26.5000 22.4000 reunion main 0 0 _____O________ -5 -26.5000 22.4000 6 9.90000 1 1 58
2021012S12086 2021 3 SI MM ELOISE 2021-01-27 03:00:00 TS -26.4742 22.4738 main 0 0 _____P________ -5 -26.4742 22.4738 6 4 106
2021012S12086 2021 3 SI MM ELOISE 2021-01-27 06:00:00 TS -26.6000 22.8000 reunion main 0 0 _____O________ -5 -26.6000 22.8000 6 9.90000 1 11 119
2021012S12086 2021 3 SI MM ELOISE 2021-01-27 09:00:00 TS -27.0027 23.5227 main 0 0 _____P________ -5 -27.0027 23.5227 6 18 123
2021012S12086 2021 3 SI MM ELOISE 2021-01-27 12:00:00 TS -27.6000 24.5000 reunion main 0 0 _____O________ -5 -27.6000 24.5000 6 9.90000 1 22 126
2021012S12086 2021 3 SI MM ELOISE 2021-01-27 15:00:00 TS -28.2837 25.5398 main 0 0 _____P________ -5 -28.2837 25.5398 6 23 127
2021012S12086 2021 3 SI MM ELOISE 2021-01-27 18:00:00 TS -29.0000 26.6000 reunion main 0 _____O________ -5 -29.0000 26.6000 6 9.90000 1 23 128

About IBTrACS Database

This database is a web-friendly format of International Best Track Archive for Climate Stewardship (IBTrACS), a global best track data archive curated by NOAA dating back to 1842.

Updated: 2022-11-16